Time;durP1;ratioP1;P1;durP2;ratioP2;P2;SDS_P1;SDS_P2;PMS_P1;PMS_P2;Temp;Humidity;BMP_temperature;BMP_pressure;BME280_temperature;BME280_humidity;BME280_pressure;Samples;Min_cycle;Max_cycle;Signal;HPM_P1;HPM_P2
2023/04/16 00:02:03;;;;;;;0.30;0.30;;;21.30;44.10;;;;;;6428606;27;20401;-43
2023/04/16 00:05:05;;;;;;;0.75;0.57;;;21.30;44.30;;;;;;6427757;27;20098;-44
2023/04/16 00:08:07;;;;;;;0.40;0.40;;;21.50;44.40;;;;;;6427956;27;20065;-42
2023/04/16 00:11:09;;;;;;;0.50;0.50;;;21.10;44.40;;;;;;6409660;27;20038;-43
2023/04/16 00:14:10;;;;;;;0.60;0.40;;;21.20;44.50;;;;;;6427549;27;20045;-43
2023/04/16 00:17:12;;;;;;;0.50;0.43;;;21.30;44.60;;;;;;6427785;27;20512;-45
2023/04/16 00:20:14;;;;;;;;;;;21.40;44.70;;;;;;6428040;27;20038;-43
2023/04/16 00:23:16;;;;;;;0.30;0.30;;;21.20;44.80;;;;;;6427400;27;19919;-44
2023/04/16 00:26:17;;;;;;;0.43;0.43;;;21.50;44.50;;;;;;6427678;27;20043;-44
2023/04/16 00:29:21;;;;;;;0.50;0.40;;;21.50;44.80;;;;;;6427421;27;20452;-44
2023/04/16 00:32:22;;;;;;;0.50;0.40;;;21.10;44.70;;;;;;6427113;27;20512;-43
2023/04/16 00:35:25;;;;;;;0.70;0.70;;;21.40;44.80;;;;;;6426909;27;20050;-43
2023/04/16 00:38:29;;;;;;;0.35;0.32;;;21.10;44.80;;;;;;6427637;27;20035;-44
2023/04/16 00:41:31;;;;;;;0.55;0.50;;;21.30;44.80;;;;;;6426974;27;20045;-43
2023/04/16 00:44:34;;;;;;;;;;;21.60;45.10;;;;;;6427670;27;20038;-44
2023/04/16 00:47:36;;;;;;;0.50;0.50;;;21.60;45.50;;;;;;6426934;27;20009;-44
2023/04/16 00:50:38;;;;;;;0.40;0.40;;;21.40;45.00;;;;;;6427602;27;20085;-43
2023/04/16 00:53:43;;;;;;;0.63;0.50;;;21.10;45.10;;;;;;6427077;27;20045;-42
2023/04/16 00:56:44;;;;;;;0.40;0.40;;;21.20;44.90;;;;;;6426996;27;20054;-46
2023/04/16 00:59:45;;;;;;;;;;;21.10;45.20;;;;;;6427087;27;20042;-43
2023/04/16 01:02:47;;;;;;;0.38;0.30;;;21.10;45.60;;;;;;6426925;27;19987;-43
2023/04/16 01:05:50;;;;;;;0.30;0.30;;;21.20;45.40;;;;;;6426137;27;20041;-44
2023/04/16 01:08:52;;;;;;;0.70;0.40;;;21.50;45.50;;;;;;6426793;27;20030;-42
2023/04/16 01:11:53;;;;;;;;;;;21.30;45.60;;;;;;6415210;22;20047;-48
2023/04/16 01:14:55;;;;;;;0.20;0.20;;;21.50;46.20;;;;;;6376689;28;19941;-46
2023/04/16 01:17:57;;;;;;;0.32;0.32;;;21.10;45.70;;;;;;6376618;28;20057;-48
2023/04/16 01:20:59;;;;;;;;;;;21.00;45.70;;;;;;6377698;28;20076;-46
2023/04/16 01:24:02;;;;;;;0.40;0.40;;;21.10;46.10;;;;;;6376395;28;19927;-47
2023/04/16 01:27:03;;;;;;;0.82;0.40;;;20.90;45.70;;;;;;6376637;28;20047;-49
2023/04/16 01:30:08;;;;;;;0.60;0.30;;;20.90;45.90;;;;;;6375881;28;20095;-45
2023/04/16 01:33:23;;;;;;;0.50;0.50;;;20.90;45.80;;;;;;6375867;28;20040;-46
2023/04/16 01:36:25;;;;;;;;;;;20.90;46.00;;;;;;6376991;28;20115;-47
2023/04/16 01:39:27;;;;;;;0.40;0.40;;;21.00;46.30;;;;;;6375732;28;19931;-48
2023/04/16 01:42:31;;;;;;;1.33;0.52;;;21.00;46.10;;;;;;6375138;28;20040;-45
2023/04/16 01:45:33;;;;;;;0.47;0.47;;;21.30;46.30;;;;;;6375756;28;20052;-49
2023/04/16 01:48:36;;;;;;;0.60;0.50;;;20.80;46.10;;;;;;6376000;28;20050;-49
2023/04/16 01:51:38;;;;;;;;;;;20.90;46.30;;;;;;6376010;28;20044;-45
2023/04/16 01:54:39;;;;;;;;;;;20.90;46.60;;;;;;6375617;28;19910;-45
2023/04/16 01:57:41;;;;;;;0.65;0.40;;;20.80;46.20;;;;;;6375187;28;19941;-46
2023/04/16 02:00:42;;;;;;;0.50;0.50;;;20.90;46.40;;;;;;6374924;28;20032;-48
2023/04/16 02:03:44;;;;;;;;;;;20.70;46.40;;;;;;6376569;28;20095;-49
2023/04/16 02:06:46;;;;;;;;;;;21.60;47.10;;;;;;6376003;28;20282;-47
2023/04/16 02:09:49;;;;;;;0.57;0.52;;;20.80;46.80;;;;;;6375934;28;19911;-49
2023/04/16 02:12:51;;;;;;;0.50;0.50;;;20.80;46.40;;;;;;6374582;28;20046;-46
2023/04/16 02:15:52;;;;;;;;;;;20.80;46.60;;;;;;6376016;28;20032;-48
2023/04/16 02:19:05;;;;;;;0.60;0.60;;;20.70;46.90;;;;;;6374303;28;19951;-46
2023/04/16 02:22:10;;;;;;;0.63;0.52;;;20.70;46.60;;;;;;6375524;28;20042;-50
2023/04/16 02:25:13;;;;;;;0.60;0.60;;;21.20;46.90;;;;;;6373684;28;20023;-49
2023/04/16 02:28:16;;;;;;;0.50;0.40;;;20.70;46.50;;;;;;6374101;28;20099;-45
2023/04/16 02:31:21;;;;;;;0.80;0.60;;;20.80;46.80;;;;;;6373760;28;20048;-46
2023/04/16 02:34:23;;;;;;;0.68;0.68;;;20.70;46.80;;;;;;6374197;28;20074;-46
2023/04/16 02:37:25;;;;;;;0.73;0.60;;;21.30;47.20;;;;;;6375007;28;20052;-46
2023/04/16 02:40:27;;;;;;;0.70;0.70;;;20.70;47.00;;;;;;6374005;28;20020;-49
2023/04/16 02:43:28;;;;;;;0.60;0.57;;;20.80;47.00;;;;;;6373433;28;20058;-45
2023/04/16 02:46:30;;;;;;;0.70;0.70;;;20.70;47.00;;;;;;6373107;28;20063;-47
2023/04/16 02:49:32;;;;;;;0.57;0.52;;;20.90;47.20;;;;;;6372675;28;20061;-47
2023/04/16 02:52:34;;;;;;;0.77;0.68;;;20.70;47.10;;;;;;6354564;28;20036;-48
2023/04/16 02:55:35;;;;;;;0.70;0.70;;;20.80;47.80;;;;;;6373000;28;20040;-47
2023/04/16 02:58:37;;;;;;;;;;;20.60;47.00;;;;;;6373329;28;20039;-45
2023/04/16 03:01:39;;;;;;;0.55;0.55;;;21.30;44.60;;;;;;6354705;28;19920;-45
2023/04/16 03:04:40;;;;;;;0.70;0.70;;;20.70;47.10;;;;;;6373079;28;20047;-50
2023/04/16 03:07:42;;;;;;;0.52;0.50;;;20.70;47.30;;;;;;6372232;28;20040;-44
2023/04/16 03:10:44;;;;;;;0.50;0.43;;;20.50;47.20;;;;;;6372557;28;20051;-46
2023/04/16 03:13:45;;;;;;;;;;;20.80;47.40;;;;;;6371704;28;20043;-44
2023/04/16 03:16:48;;;;;;;0.88;0.50;;;21.00;47.90;;;;;;6372100;28;19986;-47
2023/04/16 03:19:50;;;;;;;0.40;0.40;;;20.70;47.50;;;;;;6371192;28;20044;-48
2023/04/16 03:22:54;;;;;;;0.50;0.50;;;20.60;47.50;;;;;;6371977;28;20044;-47
2023/04/16 03:25:55;;;;;;;0.30;0.30;;;20.70;47.70;;;;;;6372027;28;20031;-47
2023/04/16 03:28:58;;;;;;;0.43;0.43;;;20.80;47.60;;;;;;6373250;28;20054;-46
2023/04/16 03:32:05;;;;;;;0.50;0.50;;;20.50;47.50;;;;;;6375894;28;20044;-45
2023/04/16 03:35:08;;;;;;;0.50;0.50;;;20.60;47.60;;;;;;6376041;28;20063;-46
2023/04/16 03:38:11;;;;;;;0.45;0.30;;;20.60;47.50;;;;;;6359104;28;20043;-46
2023/04/16 03:41:14;;;;;;;0.40;0.40;;;20.60;47.60;;;;;;6376921;28;20048;-47
2023/04/16 03:44:16;;;;;;;0.82;0.40;;;20.60;47.70;;;;;;6375410;28;20058;-45
2023/04/16 03:47:20;;;;;;;0.60;0.50;;;20.70;47.80;;;;;;6324154;28;20043;-45
2023/04/16 03:50:24;;;;;;;0.30;0.20;;;20.60;47.80;;;;;;6376100;28;20050;-46
2023/04/16 03:53:27;;;;;;;0.50;0.50;;;20.50;47.70;;;;;;6376000;28;20076;-46
2023/04/16 03:56:28;;;;;;;0.50;0.50;;;20.60;47.80;;;;;;6375637;28;20069;-47
2023/04/16 03:59:30;;;;;;;0.30;0.30;;;21.10;47.50;;;;;;6375718;28;20044;-47
2023/04/16 04:02:32;;;;;;;0.40;0.30;;;20.60;47.80;;;;;;6375104;28;20048;-48
2023/04/16 04:05:35;;;;;;;;;;;20.50;47.80;;;;;;6376094;28;20108;-45
2023/04/16 04:08:38;;;;;;;0.40;0.40;;;21.40;48.30;;;;;;6375416;28;19926;-46
2023/04/16 04:11:40;;;;;;;0.40;0.40;;;20.90;48.00;;;;;;6375207;28;20067;-49
2023/04/16 04:14:42;;;;;;;0.75;0.50;;;20.90;47.90;;;;;;6375014;28;20052;-46
2023/04/16 04:17:44;;;;;;;0.40;0.40;;;20.60;48.20;;;;;;6375918;28;20044;-46
2023/04/16 04:20:47;;;;;;;0.55;0.47;;;20.60;47.70;;;;;;6376179;28;20112;-46
2023/04/16 04:23:52;;;;;;;0.35;0.32;;;20.60;47.60;;;;;;6375094;28;20032;-46
2023/04/16 04:26:57;;;;;;;0.50;0.50;;;20.60;47.60;;;;;;6357720;28;20044;-48
2023/04/16 04:29:58;;;;;;;0.68;0.50;;;20.60;47.30;;;;;;6374794;28;20039;-48
2023/04/16 04:33:00;;;;;;;0.50;0.40;;;20.50;47.60;;;;;;6374880;28;20084;-47
2023/04/16 04:36:01;;;;;;;0.40;0.40;;;20.50;47.70;;;;;;6375896;28;20020;-46
2023/04/16 04:39:04;;;;;;;0.57;0.47;;;20.60;47.60;;;;;;6374657;28;20521;-45
2023/04/16 04:42:07;;;;;;;0.50;0.40;;;20.40;47.40;;;;;;6374428;28;20058;-46
2023/04/16 04:45:09;;;;;;;0.45;0.40;;;20.50;47.30;;;;;;6375164;28;20050;-45
2023/04/16 04:48:16;;;;;;;0.47;0.45;;;20.50;47.40;;;;;;6374888;28;20074;-46
2023/04/16 04:51:17;;;;;;;0.50;0.50;;;20.50;47.40;;;;;;6338970;28;20048;-47
2023/04/16 04:54:21;;;;;;;0.50;0.50;;;20.50;47.40;;;;;;6374502;28;20031;-48
2023/04/16 04:57:23;;;;;;;0.55;0.40;;;20.40;47.30;;;;;;6374982;28;20043;-50
2023/04/16 05:00:28;;;;;;;0.40;0.40;;;20.60;47.30;;;;;;6374143;28;20043;-45
2023/04/16 05:03:30;;;;;;;0.40;0.40;;;20.90;47.50;;;;;;6374435;28;20072;-45
2023/04/16 05:06:32;;;;;;;0.60;0.60;;;20.40;47.30;;;;;;6374793;28;20050;-46
2023/04/16 05:09:34;;;;;;;;;;;20.50;47.40;;;;;;6375249;28;20120;-45
2023/04/16 05:12:39;;;;;;;0.52;0.50;;;20.40;47.60;;;;;;6375099;28;19926;-50
2023/04/16 05:15:40;;;;;;;0.50;0.50;;;20.50;47.20;;;;;;6375437;28;20039;-46
2023/04/16 05:18:41;;;;;;;0.60;0.50;;;20.40;47.40;;;;;;6374737;28;20426;-46
2023/04/16 05:21:43;;;;;;;0.40;0.40;;;20.40;47.40;;;;;;6374273;28;20036;-47
2023/04/16 05:24:45;;;;;;;0.45;0.43;;;20.50;47.40;;;;;;6374462;28;20067;-45
2023/04/16 05:27:47;;;;;;;0.30;0.30;;;20.50;47.40;;;;;;6374986;28;20103;-46
2023/04/16 05:30:48;;;;;;;0.32;0.30;;;20.70;47.40;;;;;;6374139;28;20036;-46
2023/04/16 05:33:50;;;;;;;;;;;20.40;47.40;;;;;;6375018;28;20077;-47
2023/04/16 05:36:52;;;;;;;0.60;0.60;;;20.40;47.50;;;;;;6374940;28;19919;-49
2023/04/16 05:39:57;;;;;;;0.70;0.57;;;20.30;47.20;;;;;;6374211;28;20048;-47
2023/04/16 05:43:00;;;;;;;0.50;0.40;;;20.50;47.10;;;;;;6374703;28;20510;-45
2023/04/16 05:46:04;;;;;;;0.77;0.60;;;20.30;47.00;;;;;;6373974;28;20047;-45
2023/04/16 05:49:10;;;;;;;0.65;0.52;;;20.30;46.90;;;;;;6374487;28;20047;-46
2023/04/16 05:52:11;;;;;;;0.60;0.60;;;20.40;46.90;;;;;;6373273;28;20074;-47
2023/04/16 05:55:13;;;;;;;;;;;20.30;47.50;;;;;;6374948;28;20047;-46
2023/04/16 05:58:15;;;;;;;0.30;0.30;;;20.30;47.10;;;;;;6374714;28;19923;-46
2023/04/16 06:01:17;;;;;;;0.70;0.55;;;20.40;46.90;;;;;;6374763;28;20019;-45
2023/04/16 06:04:18;;;;;;;1.05;0.88;;;20.30;46.60;;;;;;6373601;28;20149;-47
2023/04/16 06:07:20;;;;;;;0.85;0.73;;;20.30;46.80;;;;;;6373873;28;20083;-45
2023/04/16 06:10:22;;;;;;;0.82;0.60;;;20.40;46.90;;;;;;6374144;28;20111;-45
2023/04/16 06:13:27;;;;;;;0.50;0.50;;;20.40;46.80;;;;;;6374033;28;20114;-47
2023/04/16 06:16:28;;;;;;;0.60;0.50;;;20.30;46.80;;;;;;6373929;28;20070;-46
2023/04/16 06:19:30;;;;;;;0.68;0.50;;;20.40;47.00;;;;;;6373991;28;20103;-46
2023/04/16 06:22:31;;;;;;;0.63;0.50;;;20.30;47.50;;;;;;6372625;28;20053;-47
2023/04/16 06:25:35;;;;;;;0.88;0.60;;;20.40;46.80;;;;;;6372850;28;20047;-48
2023/04/16 06:28:37;;;;;;;0.60;0.60;;;20.30;46.70;;;;;;6373419;28;20043;-49
2023/04/16 06:31:40;;;;;;;;;;;20.40;46.40;;;;;;6373909;28;20047;-45
2023/04/16 06:34:44;;;;;;;0.70;0.60;;;21.00;46.70;;;;;;6373205;28;19920;-46
2023/04/16 06:37:48;;;;;;;0.70;0.70;;;21.00;44.10;;;;;;6373434;28;20038;-46
2023/04/16 06:40:50;;;;;;;0.57;0.57;;;20.50;45.40;;;;;;6321881;28;20044;-46
2023/04/16 06:43:52;;;;;;;0.50;0.50;;;20.50;47.00;;;;;;6373123;28;20043;-47
2023/04/16 06:46:56;;;;;;;0.50;0.50;;;20.40;47.10;;;;;;6372689;28;20044;-46
2023/04/16 06:49:57;;;;;;;0.55;0.52;;;20.40;46.90;;;;;;6372793;28;20048;-47
2023/04/16 06:52:59;;;;;;;0.40;0.40;;;20.60;47.20;;;;;;6372934;28;20059;-47
2023/04/16 06:56:01;;;;;;;0.82;0.55;;;20.40;47.10;;;;;;6372647;28;20040;-46
2023/04/16 06:59:02;;;;;;;0.50;0.50;;;20.40;47.30;;;;;;6372679;28;20047;-45
2023/04/16 07:02:04;;;;;;;0.50;0.40;;;20.70;47.50;;;;;;6372099;28;20039;-45
2023/04/16 07:05:07;;;;;;;0.60;0.60;;;20.50;47.50;;;;;;6372205;28;20063;-45
2023/04/16 07:08:09;;;;;;;0.63;0.60;;;20.60;47.60;;;;;;6372578;28;20043;-46
2023/04/16 07:11:11;;;;;;;0.50;0.50;;;20.60;47.70;;;;;;6372246;28;20026;-46
2023/04/16 07:14:13;;;;;;;0.55;0.47;;;20.60;47.40;;;;;;6346509;28;20103;-45
2023/04/16 07:17:17;;;;;;;0.60;0.40;;;20.50;48.00;;;;;;6346246;28;20040;-45
2023/04/16 07:20:19;;;;;;;0.65;0.40;;;20.60;48.10;;;;;;6346354;28;20047;-45
2023/04/16 07:23:20;;;;;;;;;;;20.80;48.30;;;;;;6346553;28;20050;-48
2023/04/16 07:26:22;;;;;;;0.43;0.40;;;21.20;48.60;;;;;;6346815;28;19923;-50
2023/04/16 07:29:26;;;;;;;0.70;0.60;;;20.50;48.10;;;;;;6347007;28;20051;-47
2023/04/16 07:32:28;;;;;;;0.60;0.40;;;20.80;48.40;;;;;;6346723;28;20073;-45
2023/04/16 07:35:29;;;;;;;;;;;20.60;48.40;;;;;;6346857;28;20096;-45
2023/04/16 07:38:31;;;;;;;0.45;0.40;;;21.00;48.70;;;;;;6328946;28;19981;-46
2023/04/16 07:41:36;;;;;;;;;;;20.70;48.40;;;;;;6346933;28;20040;-47
2023/04/16 07:44:38;;;;;;;0.52;0.40;;;20.50;48.70;;;;;;6312116;28;19973;-46
2023/04/16 07:47:39;;;;;;;0.40;0.40;;;21.00;48.80;;;;;;6346933;28;20040;-47
2023/04/16 07:50:42;;;;;;;0.40;0.40;;;20.70;48.60;;;;;;6346098;28;20050;-47
2023/04/16 07:53:44;;;;;;;0.43;0.43;;;20.70;48.40;;;;;;6311488;28;20060;-45
2023/04/16 07:56:48;;;;;;;0.60;0.50;;;20.70;48.80;;;;;;6346678;28;20052;-45
2023/04/16 07:59:51;;;;;;;0.38;0.38;;;20.70;48.70;;;;;;6346652;28;20068;-45
2023/04/16 08:02:52;;;;;;;0.40;0.40;;;20.70;48.80;;;;;;6346097;28;20036;-47
2023/04/16 08:05:54;;;;;;;0.77;0.40;;;20.90;48.60;;;;;;6347031;28;20051;-46
2023/04/16 08:08:56;;;;;;;;;;;20.90;49.00;;;;;;6345845;28;20047;-45
2023/04/16 08:11:59;;;;;;;0.50;0.32;;;20.80;66.30;;;;;;6346602;28;19920;-45
2023/04/16 08:15:01;;;;;;;0.30;0.30;;;20.60;48.70;;;;;;6329082;28;20044;-46
2023/04/16 08:18:04;;;;;;;0.50;0.40;;;20.90;48.90;;;;;;6351063;28;20065;-47
2023/04/16 08:21:06;;;;;;;0.43;0.30;;;20.70;48.80;;;;;;6349681;28;20044;-44
2023/04/16 08:24:07;;;;;;;0.45;0.40;;;21.10;49.20;;;;;;6350084;28;20052;-45
2023/04/16 08:27:10;;;;;;;;;;;20.80;49.10;;;;;;6350348;28;20020;-45
2023/04/16 08:30:20;;;;;;;0.30;0.30;;;20.90;49.40;;;;;;6349588;28;19942;-47
2023/04/16 08:33:21;;;;;;;;;;;20.60;48.90;;;;;;6350971;28;20070;-47
2023/04/16 08:36:23;;;;;;;0.30;0.30;;;20.70;49.30;;;;;;6349597;28;19927;-48
2023/04/16 08:39:24;;;;;;;0.40;0.32;;;20.70;49.00;;;;;;6349616;28;20036;-44
2023/04/16 08:42:33;;;;;;;0.50;0.40;;;20.90;49.00;;;;;;6349392;28;20048;-45
2023/04/16 08:45:35;;;;;;;0.35;0.35;;;20.80;48.80;;;;;;6349662;28;20044;-44
2023/04/16 08:48:40;;;;;;;0.20;0.20;;;20.80;48.80;;;;;;6348684;28;20036;-46
2023/04/16 08:51:44;;;;;;;0.20;0.20;;;20.80;48.70;;;;;;6349619;28;20040;-48
2023/04/16 08:54:52;;;;;;;0.45;0.30;;;20.90;48.60;;;;;;6349816;28;20058;-45
2023/04/16 08:58:00;;;;;;;1.30;0.38;;;20.90;48.40;;;;;;6331746;28;20090;-45
2023/04/16 09:01:02;;;;;;;0.22;0.22;;;20.90;48.40;;;;;;6331951;28;20041;-46
2023/04/16 09:04:05;;;;;;;0.45;0.30;;;20.90;48.40;;;;;;6349269;28;20047;-45
2023/04/16 09:07:08;;;;;;;0.40;0.20;;;20.90;48.10;;;;;;6331847;28;20051;-47
2023/04/16 09:10:10;;;;;;;0.20;0.20;;;21.00;48.20;;;;;;6348823;28;20036;-45
2023/04/16 09:13:15;;;;;;;0.20;0.20;;;20.90;47.90;;;;;;6331449;28;20074;-46
2023/04/16 09:16:17;;;;;;;0.30;0.30;;;21.00;47.70;;;;;;6348049;28;20048;-46
2023/04/16 09:19:23;;;;;;;0.20;0.20;;;21.70;47.90;;;;;;6348501;28;20040;-46
2023/04/16 09:22:25;;;;;;;0.35;0.35;;;21.50;44.70;;;;;;6348239;28;20069;-47
2023/04/16 09:25:27;;;;;;;;;;;21.20;47.70;;;;;;6347535;28;20048;-44
2023/04/16 09:28:45;;;;;;;0.20;0.20;;;21.60;47.80;;;;;;6346671;28;19927;-46
2023/04/16 09:32:01;;;;;;;0.30;0.30;;;21.20;47.30;;;;;;6331459;28;20036;-48
2023/04/16 09:35:04;;;;;;;0.50;0.20;;;20.90;47.10;;;;;;6346896;28;20044;-45
2023/04/16 09:38:06;;;;;;;0.30;0.30;;;21.00;47.00;;;;;;6346722;28;20040;-47
2023/04/16 09:41:07;;;;;;;;;;;21.20;47.20;;;;;;6346602;28;20099;-45
2023/04/16 09:44:09;;;;;;;;;;;20.90;47.20;;;;;;6346781;28;19991;-47
2023/04/16 09:47:11;;;;;;;0.47;0.30;;;21.60;47.70;;;;;;6346091;28;19942;-46
2023/04/16 09:50:15;;;;;;;0.60;0.30;;;20.90;47.00;;;;;;6345644;28;20059;-46
2023/04/16 09:53:23;;;;;;;0.30;0.30;;;21.10;46.60;;;;;;6328404;28;20036;-46
2023/04/16 09:56:25;;;;;;;0.40;0.20;;;21.20;46.50;;;;;;6293339;28;20048;-46
2023/04/16 09:59:30;;;;;;;0.40;0.40;;;21.00;46.50;;;;;;6345133;28;20146;-45
2023/04/16 10:02:33;;;;;;;0.38;0.30;;;20.90;46.20;;;;;;6345063;28;20040;-45
2023/04/16 10:05:35;;;;;;;0.40;0.40;;;21.00;46.10;;;;;;6344979;28;20047;-45
2023/04/16 10:08:36;;;;;;;0.40;0.40;;;21.20;46.00;;;;;;6345745;28;20047;-45
2023/04/16 10:11:38;;;;;;;0.32;0.30;;;21.10;45.90;;;;;;6345501;28;20487;-46
2023/04/16 10:14:41;;;;;;;0.50;0.40;;;21.10;45.70;;;;;;6345897;28;20044;-45
2023/04/16 10:17:56;;;;;;;0.25;0.25;;;21.20;45.50;;;;;;6328838;28;20060;-48
2023/04/16 10:20:58;;;;;;;0.47;0.40;;;21.40;42.40;;;;;;6344560;28;20040;-45
2023/04/16 10:24:00;;;;;;;0.35;0.30;;;21.10;45.40;;;;;;6344483;28;20043;-47
2023/04/16 10:27:02;;;;;;;0.52;0.30;;;21.20;45.30;;;;;;6344069;28;20067;-47
2023/04/16 10:30:09;;;;;;;0.40;0.40;;;21.10;45.20;;;;;;6344192;28;20036;-45
2023/04/16 10:33:11;;;;;;;0.38;0.20;;;21.20;45.10;;;;;;6342369;28;20036;-47
2023/04/16 10:36:14;;;;;;;1.10;0.47;;;21.10;44.90;;;;;;6343640;28;20040;-49
2023/04/16 10:39:19;;;;;;;0.77;0.40;;;21.10;44.80;;;;;;6324665;28;20075;-46
2023/04/16 10:42:26;;;;;;;0.30;0.30;;;21.10;44.70;;;;;;6325386;28;20073;-45
2023/04/16 10:45:31;;;;;;;0.30;0.30;;;21.30;45.20;;;;;;6342805;28;20040;-48
2023/04/16 10:48:35;;;;;;;0.57;0.30;;;21.20;44.70;;;;;;6324544;28;20040;-50
2023/04/16 10:51:54;;;;;;;0.50;0.35;;;21.50;45.00;;;;;;6342436;28;20044;-47
2023/04/16 10:54:58;;;;;;;0.40;0.40;;;21.30;44.80;;;;;;6325271;28;20044;-45
2023/04/16 10:57:59;;;;;;;0.70;0.40;;;21.30;44.70;;;;;;6341676;28;20044;-46
2023/04/16 11:01:05;;;;;;;;;;;21.30;44.90;;;;;;6343021;28;20036;-50
2023/04/16 11:04:25;;;;;;;0.70;0.40;;;21.20;45.10;;;;;;6342495;28;19931;-48
2023/04/16 11:07:33;;;;;;;0.40;0.30;;;21.20;44.70;;;;;;6343028;28;20063;-46
2023/04/16 11:10:38;;;;;;;0.50;0.50;;;21.30;44.60;;;;;;6324890;28;20044;-46
2023/04/16 11:13:43;;;;;;;0.30;0.30;;;21.30;44.80;;;;;;6342816;28;20040;-48
2023/04/16 11:16:45;;;;;;;0.30;0.30;;;21.30;44.60;;;;;;6325299;28;20044;-50
2023/04/16 11:19:47;;;;;;;0.57;0.30;;;21.20;44.60;;;;;;6343033;28;20040;-49
2023/04/16 11:22:49;;;;;;;;;;;21.30;44.60;;;;;;6342480;28;20048;-49
2023/04/16 11:25:56;;;;;;;0.75;0.35;;;21.40;44.80;;;;;;6324250;28;19927;-48
2023/04/16 11:28:59;;;;;;;0.30;0.30;;;21.40;44.40;;;;;;6341790;28;20115;-49
2023/04/16 11:32:01;;;;;;;0.30;0.30;;;21.60;44.60;;;;;;6342165;28;20044;-46
2023/04/16 11:35:04;;;;;;;0.40;0.40;;;21.30;44.20;;;;;;6342242;28;20121;-49
2023/04/16 11:38:06;;;;;;;0.40;0.40;;;21.40;44.10;;;;;;6342407;28;20052;-50
2023/04/16 11:41:09;;;;;;;0.50;0.30;;;21.40;44.90;;;;;;6324218;28;20055;-47
2023/04/16 11:44:19;;;;;;;0.30;0.30;;;21.30;44.00;;;;;;6341424;28;20047;-49
2023/04/16 11:47:22;;;;;;;0.40;0.40;;;21.50;43.90;;;;;;6324828;28;20098;-48
2023/04/16 11:50:29;;;;;;;0.30;0.30;;;21.60;43.90;;;;;;6327798;28;20047;-48
2023/04/16 11:53:30;;;;;;;0.30;0.30;;;21.40;43.80;;;;;;6347539;28;20052;-46
2023/04/16 11:56:33;;;;;;;;;;;21.30;43.80;;;;;;6347484;28;20048;-48
2023/04/16 11:59:35;;;;;;;0.30;0.30;;;21.90;44.30;;;;;;6329676;28;19920;-49
2023/04/16 12:02:39;;;;;;;0.40;0.40;;;21.80;44.10;;;;;;6346928;28;20045;-47
2023/04/16 12:05:42;;;;;;;0.22;0.20;;;21.40;43.60;;;;;;6312558;28;20044;-49
2023/04/16 12:08:43;;;;;;;0.52;0.38;;;21.50;43.80;;;;;;6346974;28;20055;-47
2023/04/16 12:11:47;;;;;;;0.30;0.30;;;21.60;61.10;;;;;;6346267;28;20044;-48
2023/04/16 12:14:49;;;;;;;;;;;21.50;43.90;;;;;;6347181;28;20044;-48
2023/04/16 12:18:06;;;;;;;0.75;0.30;;;21.40;43.90;;;;;;6347389;28;19942;-50
2023/04/16 12:21:07;;;;;;;0.28;0.20;;;21.50;43.70;;;;;;6347804;28;20051;-49
2023/04/16 12:24:10;;;;;;;;;;;21.50;43.70;;;;;;6348018;28;20044;-51
2023/04/16 12:27:11;;;;;;;0.20;0.20;;;21.50;43.90;;;;;;6347600;28;19979;-48
2023/04/16 12:30:14;;;;;;;0.40;0.30;;;21.60;43.60;;;;;;6347793;28;20040;-50
2023/04/16 12:33:18;;;;;;;0.40;0.40;;;21.60;43.60;;;;;;6329998;28;20047;-51
2023/04/16 12:36:20;;;;;;;0.10;0.10;;;21.70;43.60;;;;;;6347082;28;20048;-47
2023/04/16 12:39:21;;;;;;;0.50;0.30;;;21.60;43.80;;;;;;6347749;28;20094;-48
2023/04/16 12:42:23;;;;;;;0.30;0.30;;;21.70;43.80;;;;;;6347558;28;20044;-50
2023/04/16 12:45:24;;;;;;;;;;;21.50;43.70;;;;;;6347656;28;20077;-47
2023/04/16 12:48:26;;;;;;;0.10;0.10;;;21.60;44.00;;;;;;6347277;28;19926;-50
2023/04/16 12:51:27;;;;;;;0.43;0.20;;;21.60;43.70;;;;;;6347208;28;20047;-48
2023/04/16 12:54:30;;;;;;;0.28;0.28;;;21.60;43.30;;;;;;6347339;28;20066;-47
2023/04/16 12:57:31;;;;;;;0.22;0.22;;;21.80;43.70;;;;;;6347387;28;20048;-50
2023/04/16 13:00:32;;;;;;;;;;;21.70;43.60;;;;;;6346679;28;20040;-50
2023/04/16 13:03:35;;;;;;;0.30;0.20;;;21.70;43.90;;;;;;6346834;28;19927;-50
2023/04/16 13:06:39;;;;;;;0.20;0.20;;;21.60;43.40;;;;;;6346935;28;20044;-50
2023/04/16 13:09:41;;;;;;;0.20;0.20;;;21.70;43.40;;;;;;6329151;28;20052;-48
2023/04/16 13:12:42;;;;;;;0.30;0.20;;;21.70;43.40;;;;;;6346943;28;20097;-50
2023/04/16 13:15:44;;;;;;;;;;;22.20;43.80;;;;;;6347727;28;20044;-51
2023/04/16 13:18:46;;;;;;;0.20;0.20;;;22.00;43.80;;;;;;6347161;28;20337;-49
2023/04/16 13:21:47;;;;;;;0.20;0.20;;;21.70;43.40;;;;;;6347633;28;20044;-49
2023/04/16 13:24:49;;;;;;;;;;;22.20;43.70;;;;;;6346903;28;20048;-51
2023/04/16 13:27:50;;;;;;;0.55;0.20;;;22.30;44.00;;;;;;6347067;28;19927;-45
2023/04/16 13:30:52;;;;;;;;;;;21.70;43.30;;;;;;6347660;28;20047;-47
2023/04/16 13:33:54;;;;;;;;;;;22.70;44.10;;;;;;6347199;28;19942;-50
2023/04/16 13:36:55;;;;;;;0.35;0.28;;;21.90;43.80;;;;;;6347015;28;19942;-50
2023/04/16 13:39:56;;;;;;;;;;;21.90;43.40;;;;;;6347178;28;20044;-50
2023/04/16 13:42:58;;;;;;;0.22;0.22;;;21.80;43.30;;;;;;6347245;28;19920;-50
2023/04/16 13:46:00;;;;;;;;;;;22.00;43.50;;;;;;6347507;28;20044;-48
2023/04/16 13:49:02;;;;;;;0.15;0.15;;;21.90;43.60;;;;;;6346510;28;19942;-50
2023/04/16 13:52:03;;;;;;;0.30;0.30;;;21.90;43.20;;;;;;6346384;28;20047;-49
2023/04/16 13:55:08;;;;;;;0.20;0.20;;;21.90;42.60;;;;;;6345520;28;20051;-50
2023/04/16 13:58:10;;;;;;;0.30;0.20;;;21.80;43.00;;;;;;6345949;28;20070;-50
2023/04/16 14:01:11;;;;;;;0.20;0.20;;;22.00;43.10;;;;;;6346009;28;20055;-49
2023/04/16 14:04:14;;;;;;;0.20;0.20;;;22.00;43.10;;;;;;6346166;28;20396;-50
2023/04/16 14:07:16;;;;;;;0.40;0.30;;;22.00;43.00;;;;;;6346750;28;20048;-49
2023/04/16 14:10:17;;;;;;;0.20;0.20;;;21.90;42.90;;;;;;6345872;28;20483;-48
2023/04/16 14:13:18;;;;;;;;;;;22.00;43.00;;;;;;6345263;28;20152;-49
2023/04/16 14:16:20;;;;;;;0.20;0.20;;;22.10;43.30;;;;;;6345632;28;19924;-48
2023/04/16 14:19:22;;;;;;;0.25;0.20;;;22.20;42.40;;;;;;6345877;28;20039;-49
2023/04/16 14:22:25;;;;;;;0.20;0.20;;;22.20;42.90;;;;;;6346115;28;20040;-50
2023/04/16 14:25:27;;;;;;;0.20;0.20;;;22.20;42.70;;;;;;6345788;28;20056;-49
2023/04/16 14:28:29;;;;;;;0.45;0.20;;;22.20;42.70;;;;;;6344917;28;20066;-49
2023/04/16 14:31:31;;;;;;;0.35;0.30;;;22.70;42.00;;;;;;6345631;28;20039;-50
2023/04/16 14:34:36;;;;;;;0.73;0.20;;;22.40;42.70;;;;;;6345633;28;20040;-50
2023/04/16 14:37:37;;;;;;;0.30;0.20;;;22.70;39.60;;;;;;6345132;28;20048;-50
2023/04/16 14:40:39;;;;;;;0.20;0.20;;;22.30;42.70;;;;;;6344721;28;20040;-49
2023/04/16 14:43:40;;;;;;;;;;;22.20;42.50;;;;;;6344936;28;20044;-51
2023/04/16 14:46:45;;;;;;;0.20;0.20;;;23.20;43.30;;;;;;6344761;28;19926;-47
2023/04/16 14:49:47;;;;;;;0.15;0.10;;;22.40;42.50;;;;;;6310974;28;20048;-50
2023/04/16 14:52:49;;;;;;;0.20;0.20;;;22.30;42.40;;;;;;6345250;28;20054;-50
2023/04/16 14:55:51;;;;;;;0.10;0.10;;;22.30;42.00;;;;;;6345115;28;20056;-49
2023/04/16 14:58:54;;;;;;;0.20;0.20;;;22.40;42.40;;;;;;6328152;28;20107;-50
2023/04/16 15:01:56;;;;;;;0.20;0.20;;;22.60;42.50;;;;;;6345462;28;20044;-46
2023/04/16 15:04:59;;;;;;;0.20;0.20;;;22.30;42.10;;;;;;6345287;28;20068;-49
2023/04/16 15:08:01;;;;;;;0.20;0.13;;;22.50;42.00;;;;;;6344677;28;20051;-49
2023/04/16 15:11:02;;;;;;;0.20;0.20;;;22.40;42.10;;;;;;6343990;28;20070;-49
2023/04/16 15:14:04;;;;;;;0.28;0.28;;;22.50;42.20;;;;;;6344125;28;20058;-49
2023/04/16 15:17:05;;;;;;;0.30;0.30;;;22.60;42.20;;;;;;6344117;28;20044;-48
2023/04/16 15:20:09;;;;;;;0.20;0.20;;;22.50;42.00;;;;;;6343316;28;20040;-50
2023/04/16 15:23:14;;;;;;;0.28;0.28;;;22.50;41.80;;;;;;6343844;28;20036;-46
2023/04/16 15:26:15;;;;;;;0.25;0.20;;;22.30;41.80;;;;;;6343745;28;20055;-49
2023/04/16 15:29:18;;;;;;;;;;;22.60;42.00;;;;;;6344204;28;20040;-51
2023/04/16 15:32:19;;;;;;;0.25;0.25;;;22.50;42.00;;;;;;6344284;28;19920;-49
2023/04/16 15:35:22;;;;;;;0.15;0.15;;;22.60;42.00;;;;;;6343850;28;20132;-50
2023/04/16 15:38:23;;;;;;;0.20;0.20;;;22.70;41.80;;;;;;6344185;28;20044;-50
2023/04/16 15:41:24;;;;;;;;;;;22.60;41.70;;;;;;6344868;28;20055;-50
2023/04/16 15:44:26;;;;;;;0.30;0.13;;;22.60;41.90;;;;;;6342615;28;19920;-49
2023/04/16 15:47:28;;;;;;;0.20;0.20;;;22.70;41.80;;;;;;6343334;28;20465;-50
2023/04/16 15:50:34;;;;;;;0.28;0.28;;;22.50;41.50;;;;;;6343884;28;20041;-48
2023/04/16 15:53:35;;;;;;;0.20;0.20;;;22.70;41.30;;;;;;6343163;28;20093;-50
2023/04/16 15:56:37;;;;;;;0.20;0.20;;;22.60;41.40;;;;;;6343265;28;20531;-49
2023/04/16 15:59:38;;;;;;;;;;;22.90;41.60;;;;;;6343402;28;20059;-50
2023/04/16 16:02:40;;;;;;;0.10;0.10;;;22.70;41.70;;;;;;6343147;28;19920;-47
2023/04/16 16:05:45;;;;;;;0.20;0.20;;;23.30;41.60;;;;;;6275347;28;20048;-51